createdAt,value
2022-10-16T00:03:51.749Z,100666.84
2022-10-16T00:07:53.169Z,100677.22
2022-10-16T00:16:01.765Z,100676.81
2022-10-16T00:20:04.153Z,100684.75
2022-10-16T00:24:09.308Z,100668.81
2022-10-16T00:28:10.725Z,100689.94
2022-10-16T00:32:12.101Z,100692.84
2022-10-16T00:36:18.176Z,100697.97
2022-10-16T00:40:19.550Z,100703.53
2022-10-16T00:44:44.887Z,100699.13
2022-10-16T00:48:53.402Z,100694.00
2022-10-16T00:52:56.072Z,100695.53
2022-10-16T00:57:00.964Z,100706.31
2022-10-16T01:01:02.485Z,100705.50
2022-10-16T01:05:05.199Z,100701.53
2022-10-16T01:09:21.305Z,100706.31
2022-10-16T01:13:28.735Z,100699.91
2022-10-16T01:17:40.275Z,100710.59
2022-10-16T01:21:45.745Z,100715.03
2022-10-16T01:25:57.537Z,100711.44
2022-10-16T01:30:17.880Z,100728.53
2022-10-16T01:34:26.069Z,100732.53
2022-10-16T01:38:37.368Z,100741.97
2022-10-16T01:42:43.917Z,100740.00
2022-10-16T01:46:49.365Z,100754.34
2022-10-16T01:50:57.953Z,100739.69
2022-10-16T01:55:01.994Z,100750.88
2022-10-16T01:59:08.196Z,100756.03
2022-10-16T02:03:11.877Z,100758.38
2022-10-16T02:07:13.651Z,100752.06
2022-10-16T02:11:15.061Z,100764.84
2022-10-16T02:15:16.455Z,100771.63
2022-10-16T02:19:22.678Z,100774.00
2022-10-16T02:23:51.332Z,100771.25
2022-10-16T02:27:56.369Z,100768.09
2022-10-16T02:32:03.481Z,100764.56
2022-10-16T02:36:05.650Z,100768.47
2022-10-16T02:40:08.238Z,100776.06
2022-10-16T02:44:09.634Z,100770.94
2022-10-16T02:48:11.028Z,100774.09
2022-10-16T02:52:12.424Z,100776.00
2022-10-16T02:56:13.938Z,100768.72
2022-10-16T03:00:17.560Z,100772.44
2022-10-16T03:04:18.973Z,100773.63
2022-10-16T03:08:24.433Z,100787.97
2022-10-16T03:12:25.809Z,100797.16
2022-10-16T03:16:27.208Z,100808.66
2022-10-16T03:20:28.580Z,100805.09
2022-10-16T03:24:29.990Z,100793.09
2022-10-16T03:28:31.425Z,100809.03
2022-10-16T03:32:33.003Z,100816.16
2022-10-16T03:36:34.500Z,100823.63
2022-10-16T03:40:35.910Z,100829.88
2022-10-16T03:44:37.328Z,100834.31
2022-10-16T03:48:38.691Z,100830.00
2022-10-16T03:52:40.050Z,100835.03
2022-10-16T03:56:41.425Z,100849.72
2022-10-16T04:00:43.989Z,100852.31
2022-10-16T04:04:45.508Z,100857.00
2022-10-16T04:08:46.969Z,100870.97
2022-10-16T04:12:48.416Z,100866.44
2022-10-16T04:16:49.846Z,100865.31
2022-10-16T04:20:51.203Z,100860.25
2022-10-16T04:24:52.598Z,100859.41
2022-10-16T04:28:54.926Z,100852.72
2022-10-16T04:32:56.430Z,100852.78
2022-10-16T04:36:57.872Z,100836.88
2022-10-16T04:40:59.395Z,100825.63
2022-10-16T04:45:00.796Z,100836.28
2022-10-16T04:49:02.302Z,100843.75
2022-10-16T04:53:03.763Z,100845.31
2022-10-16T04:57:05.927Z,100850.00
2022-10-16T05:01:07.466Z,100852.56
2022-10-16T05:05:09.086Z,100867.28
2022-10-16T05:09:11.150Z,100878.22
2022-10-16T05:13:12.915Z,100893.03
2022-10-16T05:17:14.381Z,100889.41
2022-10-16T05:21:15.766Z,100894.25
2022-10-16T05:25:17.254Z,100900.25
2022-10-16T05:29:18.650Z,100884.50
2022-10-16T05:33:25.476Z,100877.44
2022-10-16T05:37:28.837Z,100882.19
2022-10-16T05:41:30.508Z,100885.72
2022-10-16T05:45:31.968Z,100881.00
2022-10-16T05:49:35.692Z,100905.06
2022-10-16T05:53:40.779Z,100905.75
2022-10-16T05:57:42.317Z,100899.38
2022-10-16T06:01:43.702Z,100901.06
2022-10-16T06:05:45.064Z,100904.94
2022-10-16T06:09:50.686Z,100907.47
2022-10-16T06:13:53.381Z,100922.88
2022-10-16T06:17:54.740Z,100911.44
2022-10-16T06:21:56.226Z,100913.75
2022-10-16T06:26:05.983Z,100922.19
2022-10-16T06:30:08.274Z,100917.72
2022-10-16T06:34:11.677Z,100928.91
2022-10-16T06:38:13.037Z,100939.59
2022-10-16T06:42:14.408Z,100949.97
2022-10-16T06:46:18.924Z,100961.06
2022-10-16T06:50:20.421Z,100949.81
2022-10-16T06:54:21.799Z,100961.66
2022-10-16T06:58:24.087Z,100966.28
2022-10-16T07:02:25.872Z,100954.38
2022-10-16T07:06:31.103Z,100957.25
2022-10-16T07:10:33.362Z,100968.19
2022-10-16T07:14:34.722Z,100992.28
2022-10-16T07:18:37.628Z,100983.59
2022-10-16T07:22:39.182Z,100976.25
2022-10-16T07:26:41.456Z,100973.13
2022-10-16T07:30:42.850Z,100992.03
2022-10-16T07:34:44.283Z,100982.72
2022-10-16T07:38:46.721Z,100984.91
2022-10-16T07:42:48.176Z,100995.50
2022-10-16T07:46:49.614Z,100990.91
2022-10-16T07:50:51.150Z,101001.22
2022-10-16T07:54:52.582Z,100993.25
2022-10-16T07:58:54.132Z,100996.50
2022-10-16T08:02:55.598Z,100996.03
2022-10-16T08:06:57.092Z,101008.88
2022-10-16T08:10:58.550Z,101022.94
2022-10-16T08:15:00.052Z,101033.41
2022-10-16T08:19:01.462Z,101031.56
2022-10-16T08:23:03.233Z,101032.91
2022-10-16T08:27:04.936Z,101029.00
2022-10-16T08:31:15.131Z,101024.66
2022-10-16T08:35:17.413Z,101028.69
2022-10-16T08:39:18.770Z,101036.31
2022-10-16T08:43:32.255Z,101035.13
2022-10-16T08:47:49.642Z,101025.50
2022-10-16T08:51:51.969Z,101039.50
2022-10-16T08:55:54.625Z,101054.69
2022-10-16T09:00:01.413Z,101041.09
2022-10-16T09:04:24.681Z,101049.50
2022-10-16T09:08:26.070Z,101057.91
2022-10-16T09:12:49.191Z,101063.19
2022-10-16T09:17:01.703Z,101084.38
2022-10-16T09:21:18.576Z,101086.41
2022-10-16T09:25:22.849Z,101073.94
2022-10-16T09:29:26.891Z,101081.13
2022-10-16T09:33:36.619Z,101073.16
2022-10-16T09:37:38.152Z,101077.56
2022-10-16T09:41:45.168Z,101085.97
2022-10-16T09:45:57.923Z,101099.63
2022-10-16T09:50:03.300Z,101098.41
2022-10-16T09:54:10.418Z,101111.25
2022-10-16T09:58:14.334Z,101108.44
2022-10-16T10:02:18.885Z,101112.44
2022-10-16T10:06:25.771Z,101122.44
2022-10-16T10:10:32.906Z,101129.19
2022-10-16T10:14:46.294Z,101128.47
2022-10-16T10:18:47.757Z,101127.63
2022-10-16T10:22:49.211Z,101118.81
2022-10-16T10:27:26.918Z,101123.59
2022-10-16T10:31:43.024Z,101136.03
2022-10-16T10:35:55.207Z,101128.47
2022-10-16T10:40:18.629Z,101136.44
2022-10-16T10:44:31.570Z,101131.44
2022-10-16T10:48:59.184Z,101147.94
2022-10-16T10:53:25.647Z,101141.06
2022-10-16T10:57:30.913Z,101153.13
2022-10-16T11:01:55.610Z,101157.34
2022-10-16T11:06:08.300Z,101152.53
2022-10-16T11:10:22.554Z,101142.69
2022-10-16T11:14:32.824Z,101155.38
2022-10-16T11:18:49.801Z,101150.56
2022-10-16T11:22:57.562Z,101156.13
2022-10-16T11:27:05.328Z,101157.31
2022-10-16T11:31:10.181Z,101158.06
2022-10-16T11:35:23.478Z,101161.56
2022-10-16T11:39:29.920Z,101151.47
2022-10-16T11:43:43.120Z,101151.00
2022-10-16T11:47:59.251Z,101156.31
2022-10-16T11:52:24.135Z,101156.22
2022-10-16T11:56:26.141Z,101160.34
2022-10-16T12:00:45.726Z,101157.63
2022-10-16T12:04:51.634Z,101154.16
2022-10-16T12:08:54.459Z,101169.06
2022-10-16T12:12:57.496Z,101174.34
2022-10-16T12:17:01.764Z,101170.16
2022-10-16T12:21:08.006Z,101176.06
2022-10-16T12:25:31.045Z,101174.03
2022-10-16T12:29:39.831Z,101172.66
2022-10-16T12:33:43.893Z,101174.59
2022-10-16T12:37:45.838Z,101186.09
2022-10-16T12:41:49.339Z,101191.28
2022-10-16T12:46:00.803Z,101188.38
2022-10-16T12:50:10.397Z,101196.91
2022-10-16T12:54:19.638Z,101187.13
2022-10-16T12:58:39.980Z,101194.94
2022-10-16T13:03:02.298Z,101205.28
2022-10-16T13:07:36.744Z,101205.25
2022-10-16T13:11:56.281Z,101207.41
2022-10-16T13:16:09.805Z,101210.00
2022-10-16T13:20:29.469Z,101218.66
2022-10-16T13:24:50.497Z,101226.13
2022-10-16T13:28:54.027Z,101233.59
2022-10-16T13:33:03.163Z,101236.22
2022-10-16T13:37:17.487Z,101238.44
2022-10-16T13:41:19.367Z,101234.91
2022-10-16T13:45:27.826Z,101245.19
2022-10-16T13:49:29.537Z,101239.94
2022-10-16T13:53:34.971Z,101253.31
2022-10-16T13:57:36.618Z,101254.66
2022-10-16T14:01:43.746Z,101252.59
2022-10-16T14:05:51.713Z,101264.00
2022-10-16T14:09:54.624Z,101264.66
2022-10-16T14:13:56.538Z,101262.44
2022-10-16T14:17:58.925Z,101261.56
2022-10-16T14:22:02.970Z,101268.97
2022-10-16T14:26:10.113Z,101269.25
2022-10-16T14:30:18.140Z,101273.44
2022-10-16T14:34:36.596Z,101270.75
2022-10-16T14:38:41.806Z,101274.75
2022-10-16T14:42:45.593Z,101275.31
2022-10-16T14:46:47.940Z,101281.91
2022-10-16T14:50:49.355Z,101284.06
2022-10-16T14:54:51.752Z,101283.00
2022-10-16T14:58:53.930Z,101277.75
2022-10-16T15:02:55.463Z,101289.63
2022-10-16T15:06:56.947Z,101280.69
2022-10-16T15:10:58.423Z,101292.31
2022-10-16T15:14:59.952Z,101301.50
2022-10-16T15:19:01.380Z,101305.72
2022-10-16T15:23:13.854Z,101314.13
2022-10-16T15:27:15.342Z,101314.75
2022-10-16T15:31:16.783Z,101319.97
2022-10-16T15:35:18.206Z,101318.72
2022-10-16T15:39:21.010Z,101330.09
2022-10-16T15:43:22.842Z,101329.69
2022-10-16T15:47:24.377Z,101333.69
2022-10-16T15:51:29.871Z,101344.22
2022-10-16T15:55:31.382Z,101357.47
2022-10-16T15:59:32.797Z,101362.69
2022-10-16T16:03:34.413Z,101356.25
2022-10-16T16:07:40.193Z,101377.13
2022-10-16T16:11:42.134Z,101376.25
2022-10-16T16:15:43.636Z,101377.94
2022-10-16T16:19:46.991Z,101380.75
2022-10-16T16:23:48.405Z,101390.38
2022-10-16T16:27:49.849Z,101397.91
2022-10-16T16:31:51.387Z,101397.03
2022-10-16T16:35:57.463Z,101404.16
2022-10-16T16:40:01.881Z,101398.06
2022-10-16T16:44:09.636Z,101416.19
2022-10-16T16:48:11.077Z,101423.34
2022-10-16T16:52:12.647Z,101432.16
2022-10-16T16:56:14.285Z,101440.91
2022-10-16T17:00:16.076Z,101446.41
2022-10-16T17:04:17.715Z,101452.50
2022-10-16T17:08:19.329Z,101456.41
2022-10-16T17:12:20.918Z,101469.09
2022-10-16T17:16:28.098Z,101470.72
2022-10-16T17:20:29.509Z,101465.66
2022-10-16T17:24:30.958Z,101473.50
2022-10-16T17:28:32.651Z,101482.50
2022-10-16T17:32:34.650Z,101494.63
2022-10-16T17:36:38.396Z,101504.59
2022-10-16T17:40:40.598Z,101516.66
2022-10-16T17:44:42.063Z,101512.91
2022-10-16T17:48:45.817Z,101518.44
2022-10-16T17:52:47.219Z,101517.09
2022-10-16T17:56:48.920Z,101511.19
2022-10-16T18:00:50.379Z,101514.72
2022-10-16T18:04:52.017Z,101509.94
2022-10-16T18:08:56.622Z,101523.75
2022-10-16T18:12:58.115Z,101528.59
2022-10-16T18:16:59.647Z,101540.72
2022-10-16T18:21:02.911Z,101537.88
2022-10-16T18:25:06.099Z,101546.28
2022-10-16T18:29:08.226Z,101549.69
2022-10-16T18:33:09.749Z,101549.13
2022-10-16T18:37:12.545Z,101551.72
2022-10-16T18:41:14.189Z,101561.06
2022-10-16T18:45:16.287Z,101568.00
2022-10-16T18:49:18.181Z,101585.38
2022-10-16T18:53:20.471Z,101581.63
2022-10-16T18:57:22.496Z,101591.75
2022-10-16T19:01:25.218Z,101587.88
2022-10-16T19:05:26.774Z,101584.03
2022-10-16T19:09:28.597Z,101582.16
2022-10-16T19:13:30.509Z,101579.91
2022-10-16T19:17:32.342Z,101570.72
2022-10-16T19:21:37.381Z,101569.75
2022-10-16T19:25:40.018Z,101581.34
2022-10-16T19:29:41.499Z,101569.31
2022-10-16T19:33:43.753Z,101584.41
2022-10-16T19:37:45.199Z,101590.16
2022-10-16T19:41:47.665Z,101589.25
2022-10-16T19:45:49.081Z,101590.78
2022-10-16T19:49:50.943Z,101610.97
2022-10-16T19:54:00.926Z,101614.84
2022-10-16T19:58:02.364Z,101603.78
2022-10-16T20:02:03.742Z,101612.91
2022-10-16T20:06:06.909Z,101623.84
2022-10-16T20:10:08.691Z,101624.28
2022-10-16T20:14:10.054Z,101630.19
2022-10-16T20:18:11.781Z,101629.97
2022-10-16T20:22:13.238Z,101647.91
2022-10-16T20:26:15.236Z,101655.13
2022-10-16T20:30:16.730Z,101663.88
2022-10-16T20:34:18.164Z,101664.09
2022-10-16T20:38:19.746Z,101670.78
2022-10-16T20:42:21.161Z,101674.47
2022-10-16T20:46:24.721Z,101668.00
2022-10-16T20:50:30.286Z,101664.34
2022-10-16T20:54:31.701Z,101662.41
2022-10-16T20:58:33.131Z,101660.84
2022-10-16T21:02:34.541Z,101665.50
2022-10-16T21:06:38.150Z,101661.31
2022-10-16T21:10:39.517Z,101671.25
2022-10-16T21:14:46.458Z,101674.75
2022-10-16T21:18:58.246Z,101664.28
2022-10-16T21:23:02.631Z,101674.78
2022-10-16T21:27:04.240Z,101676.56
2022-10-16T21:31:18.956Z,101669.44
2022-10-16T21:35:20.407Z,101706.16
2022-10-16T21:39:21.947Z,101706.63
2022-10-16T21:43:23.316Z,101697.81
2022-10-16T21:47:24.871Z,101707.44
2022-10-16T21:51:38.029Z,101716.91
2022-10-16T21:55:39.437Z,101718.41
2022-10-16T21:59:40.841Z,101715.97
2022-10-16T22:03:43.185Z,101718.84
2022-10-16T22:07:44.593Z,101702.63
2022-10-16T22:11:46.079Z,101702.53
2022-10-16T22:15:53.332Z,101708.97
2022-10-16T22:19:54.796Z,101720.84
2022-10-16T22:23:56.408Z,101713.56
2022-10-16T22:27:57.778Z,101710.13
2022-10-16T22:31:59.197Z,101713.16
2022-10-16T22:36:01.727Z,101707.88
2022-10-16T22:40:03.183Z,101711.28
2022-10-16T22:44:04.747Z,101708.72
2022-10-16T22:48:06.360Z,101722.00
2022-10-16T22:52:07.746Z,101716.22
2022-10-16T22:56:10.873Z,101715.66
2022-10-16T23:00:16.875Z,101721.59
2022-10-16T23:04:18.297Z,101720.59
2022-10-16T23:08:19.785Z,101734.19
2022-10-16T23:12:23.364Z,101723.06
2022-10-16T23:16:25.355Z,101731.50
2022-10-16T23:20:26.798Z,101727.03
2022-10-16T23:24:30.695Z,101724.06
2022-10-16T23:28:32.302Z,101725.25
2022-10-16T23:32:34.560Z,101732.81
2022-10-16T23:36:35.956Z,101720.75
2022-10-16T23:40:37.379Z,101721.22
2022-10-16T23:44:38.791Z,101724.34
2022-10-16T23:48:40.460Z,101733.59
2022-10-16T23:52:41.849Z,101726.78
2022-10-16T23:56:43.242Z,101737.69
